sensor_id;sensor_type;location;lat;lon;timestamp;P1;durP1;ratioP1;P2;durP2;ratioP2
77262;SDS011;66373;52.334;4.806;2023-04-25T00:01:01;9.23;;;5.50;;
77262;SDS011;66373;52.334;4.806;2023-04-25T00:03:30;9.23;;;6.80;;
77262;SDS011;66373;52.334;4.806;2023-04-25T00:05:57;10.85;;;5.97;;
77262;SDS011;66373;52.334;4.806;2023-04-25T00:08:27;10.38;;;5.85;;
77262;SDS011;66373;52.334;4.806;2023-04-25T00:10:54;12.90;;;5.53;;
77262;SDS011;66373;52.334;4.806;2023-04-25T00:13:21;8.05;;;5.50;;
77262;SDS011;66373;52.334;4.806;2023-04-25T00:15:48;7.72;;;5.07;;
77262;SDS011;66373;52.334;4.806;2023-04-25T00:18:15;8.35;;;5.10;;
77262;SDS011;66373;52.334;4.806;2023-04-25T00:20:44;9.82;;;5.32;;
77262;SDS011;66373;52.334;4.806;2023-04-25T00:23:11;10.93;;;5.63;;
77262;SDS011;66373;52.334;4.806;2023-04-25T00:25:43;11.40;;;4.88;;
77262;SDS011;66373;52.334;4.806;2023-04-25T00:28:10;11.07;;;6.03;;
77262;SDS011;66373;52.334;4.806;2023-04-25T00:30:37;8.88;;;4.85;;
77262;SDS011;66373;52.334;4.806;2023-04-25T00:33:04;8.57;;;5.15;;
77262;SDS011;66373;52.334;4.806;2023-04-25T00:35:32;8.80;;;4.57;;
77262;SDS011;66373;52.334;4.806;2023-04-25T00:38:01;7.32;;;4.97;;
77262;SDS011;66373;52.334;4.806;2023-04-25T00:40:28;7.75;;;4.95;;
77262;SDS011;66373;52.334;4.806;2023-04-25T00:42:55;7.28;;;4.75;;
77262;SDS011;66373;52.334;4.806;2023-04-25T00:45:22;7.72;;;4.75;;
77262;SDS011;66373;52.334;4.806;2023-04-25T00:47:55;8.45;;;4.78;;
77262;SDS011;66373;52.334;4.806;2023-04-25T00:50:22;9.90;;;4.80;;
77262;SDS011;66373;52.334;4.806;2023-04-25T00:52:49;8.25;;;4.50;;
77262;SDS011;66373;52.334;4.806;2023-04-25T00:55:19;6.45;;;4.57;;
77262;SDS011;66373;52.334;4.806;2023-04-25T00:57:46;5.60;;;4.13;;
77262;SDS011;66373;52.334;4.806;2023-04-25T01:00:14;9.57;;;5.03;;
77262;SDS011;66373;52.334;4.806;2023-04-25T01:02:43;8.13;;;4.95;;
77262;SDS011;66373;52.334;4.806;2023-04-25T01:05:11;9.05;;;4.20;;
77262;SDS011;66373;52.334;4.806;2023-04-25T01:07:38;6.20;;;4.00;;
77262;SDS011;66373;52.334;4.806;2023-04-25T01:10:06;7.68;;;4.90;;
77262;SDS011;66373;52.334;4.806;2023-04-25T01:12:35;9.85;;;4.70;;
77262;SDS011;66373;52.334;4.806;2023-04-25T01:15:02;6.13;;;4.40;;
77262;SDS011;66373;52.334;4.806;2023-04-25T01:17:30;8.05;;;4.07;;
77262;SDS011;66373;52.334;4.806;2023-04-25T01:19:58;6.43;;;4.40;;
77262;SDS011;66373;52.334;4.806;2023-04-25T01:22:27;7.63;;;4.30;;
77262;SDS011;66373;52.334;4.806;2023-04-25T01:24:54;7.30;;;4.30;;
77262;SDS011;66373;52.334;4.806;2023-04-25T01:27:23;5.13;;;3.78;;
77262;SDS011;66373;52.334;4.806;2023-04-25T01:29:50;7.85;;;3.85;;
77262;SDS011;66373;52.334;4.806;2023-04-25T01:32:18;8.45;;;4.78;;
77262;SDS011;66373;52.334;4.806;2023-04-25T01:34:46;7.13;;;3.80;;
77262;SDS011;66373;52.334;4.806;2023-04-25T01:37:13;6.25;;;3.75;;
77262;SDS011;66373;52.334;4.806;2023-04-25T01:39:44;7.03;;;3.92;;
77262;SDS011;66373;52.334;4.806;2023-04-25T01:42:12;6.45;;;4.00;;
77262;SDS011;66373;52.334;4.806;2023-04-25T01:44:39;9.25;;;4.50;;
77262;SDS011;66373;52.334;4.806;2023-04-25T01:47:06;6.20;;;3.80;;
77262;SDS011;66373;52.334;4.806;2023-04-25T01:49:33;6.60;;;4.03;;
77262;SDS011;66373;52.334;4.806;2023-04-25T01:52:01;5.22;;;3.30;;
77262;SDS011;66373;52.334;4.806;2023-04-25T01:54:28;5.70;;;3.50;;
77262;SDS011;66373;52.334;4.806;2023-04-25T01:56:56;4.60;;;3.47;;
77262;SDS011;66373;52.334;4.806;2023-04-25T01:59:24;4.57;;;3.10;;
77262;SDS011;66373;52.334;4.806;2023-04-25T02:02:14;4.93;;;3.30;;
77262;SDS011;66373;52.334;4.806;2023-04-25T02:04:42;7.13;;;3.65;;
77262;SDS011;66373;52.334;4.806;2023-04-25T02:07:09;5.22;;;3.50;;
77262;SDS011;66373;52.334;4.806;2023-04-25T02:09:45;3.90;;;3.13;;
77262;SDS011;66373;52.334;4.806;2023-04-25T02:12:13;6.70;;;3.38;;
77262;SDS011;66373;52.334;4.806;2023-04-25T02:15:01;5.13;;;3.40;;
77262;SDS011;66373;52.334;4.806;2023-04-25T02:17:41;4.55;;;3.40;;
77262;SDS011;66373;52.334;4.806;2023-04-25T02:20:11;5.80;;;3.63;;
77262;SDS011;66373;52.334;4.806;2023-04-25T02:22:38;7.47;;;2.95;;
77262;SDS011;66373;52.334;4.806;2023-04-25T02:25:06;5.03;;;2.95;;
77262;SDS011;66373;52.334;4.806;2023-04-25T02:27:36;4.43;;;2.83;;
77262;SDS011;66373;52.334;4.806;2023-04-25T02:30:03;5.45;;;3.55;;
77262;SDS011;66373;52.334;4.806;2023-04-25T02:32:32;6.35;;;3.53;;
77262;SDS011;66373;52.334;4.806;2023-04-25T02:35:01;5.35;;;3.28;;
77262;SDS011;66373;52.334;4.806;2023-04-25T02:37:29;5.15;;;2.85;;
77262;SDS011;66373;52.334;4.806;2023-04-25T02:39:56;5.57;;;3.22;;
77262;SDS011;66373;52.334;4.806;2023-04-25T02:42:23;5.20;;;2.75;;
77262;SDS011;66373;52.334;4.806;2023-04-25T02:44:52;6.07;;;3.45;;
77262;SDS011;66373;52.334;4.806;2023-04-25T02:47:19;4.65;;;3.08;;
77262;SDS011;66373;52.334;4.806;2023-04-25T02:49:48;6.75;;;3.00;;
77262;SDS011;66373;52.334;4.806;2023-04-25T02:52:15;4.85;;;3.08;;
77262;SDS011;66373;52.334;4.806;2023-04-25T02:54:46;3.13;;;2.75;;
77262;SDS011;66373;52.334;4.806;2023-04-25T02:57:13;3.53;;;2.75;;
77262;SDS011;66373;52.334;4.806;2023-04-25T02:59:40;5.32;;;2.65;;
77262;SDS011;66373;52.334;4.806;2023-04-25T03:02:09;7.20;;;3.45;;
77262;SDS011;66373;52.334;4.806;2023-04-25T03:04:36;5.38;;;2.90;;
77262;SDS011;66373;52.334;4.806;2023-04-25T03:07:03;3.40;;;2.40;;
77262;SDS011;66373;52.334;4.806;2023-04-25T03:09:31;4.28;;;2.55;;
77262;SDS011;66373;52.334;4.806;2023-04-25T03:11:58;3.17;;;2.35;;
77262;SDS011;66373;52.334;4.806;2023-04-25T03:14:25;3.53;;;2.30;;
77262;SDS011;66373;52.334;4.806;2023-04-25T03:16:53;3.15;;;2.33;;
77262;SDS011;66373;52.334;4.806;2023-04-25T03:19:22;4.70;;;2.55;;
77262;SDS011;66373;52.334;4.806;2023-04-25T03:21:49;3.85;;;2.40;;
77262;SDS011;66373;52.334;4.806;2023-04-25T03:24:16;3.05;;;2.30;;
77262;SDS011;66373;52.334;4.806;2023-04-25T03:26:43;3.33;;;2.75;;
77262;SDS011;66373;52.334;4.806;2023-04-25T03:29:10;3.88;;;2.63;;
77262;SDS011;66373;52.334;4.806;2023-04-25T03:31:40;2.83;;;2.30;;
77262;SDS011;66373;52.334;4.806;2023-04-25T03:34:08;4.28;;;2.42;;
77262;SDS011;66373;52.334;4.806;2023-04-25T03:36:37;5.05;;;2.65;;
77262;SDS011;66373;52.334;4.806;2023-04-25T03:39:03;4.80;;;2.47;;
77262;SDS011;66373;52.334;4.806;2023-04-25T03:41:31;5.63;;;2.40;;
77262;SDS011;66373;52.334;4.806;2023-04-25T03:44:06;3.67;;;2.20;;
77262;SDS011;66373;52.334;4.806;2023-04-25T03:46:33;3.50;;;2.38;;
77262;SDS011;66373;52.334;4.806;2023-04-25T03:49:01;3.30;;;2.03;;
77262;SDS011;66373;52.334;4.806;2023-04-25T03:51:49;3.20;;;2.15;;
77262;SDS011;66373;52.334;4.806;2023-04-25T03:54:16;3.45;;;2.20;;
77262;SDS011;66373;52.334;4.806;2023-04-25T03:56:55;4.28;;;2.15;;
77262;SDS011;66373;52.334;4.806;2023-04-25T03:59:26;2.40;;;2.10;;
77262;SDS011;66373;52.334;4.806;2023-04-25T04:01:53;4.68;;;2.25;;
77262;SDS011;66373;52.334;4.806;2023-04-25T04:04:21;2.35;;;2.15;;
77262;SDS011;66373;52.334;4.806;2023-04-25T04:06:49;3.05;;;2.00;;
77262;SDS011;66373;52.334;4.806;2023-04-25T04:09:23;4.13;;;2.15;;
77262;SDS011;66373;52.334;4.806;2023-04-25T04:11:50;2.22;;;2.00;;
77262;SDS011;66373;52.334;4.806;2023-04-25T04:14:17;2.63;;;2.30;;
77262;SDS011;66373;52.334;4.806;2023-04-25T04:16:46;2.15;;;1.90;;
77262;SDS011;66373;52.334;4.806;2023-04-25T04:19:13;3.15;;;2.00;;
77262;SDS011;66373;52.334;4.806;2023-04-25T04:21:45;2.33;;;2.00;;
77262;SDS011;66373;52.334;4.806;2023-04-25T04:24:14;3.22;;;2.00;;
77262;SDS011;66373;52.334;4.806;2023-04-25T04:27:03;3.33;;;2.10;;
77262;SDS011;66373;52.334;4.806;2023-04-25T04:32:38;3.05;;;2.20;;
77262;SDS011;66373;52.334;4.806;2023-04-25T04:35:05;4.30;;;1.90;;
77262;SDS011;66373;52.334;4.806;2023-04-25T04:37:34;2.05;;;1.85;;
77262;SDS011;66373;52.334;4.806;2023-04-25T04:40:05;1.98;;;1.60;;
77262;SDS011;66373;52.334;4.806;2023-04-25T04:42:45;2.40;;;1.77;;
77262;SDS011;66373;52.334;4.806;2023-04-25T04:45:36;2.60;;;2.00;;
77262;SDS011;66373;52.334;4.806;2023-04-25T04:48:20;4.72;;;2.33;;
77262;SDS011;66373;52.334;4.806;2023-04-25T04:51:06;2.20;;;2.00;;
77262;SDS011;66373;52.334;4.806;2023-04-25T04:54:03;3.00;;;2.03;;
77262;SDS011;66373;52.334;4.806;2023-04-25T04:56:44;2.13;;;1.92;;
77262;SDS011;66373;52.334;4.806;2023-04-25T04:59:21;3.20;;;1.95;;
77262;SDS011;66373;52.334;4.806;2023-04-25T05:02:05;2.88;;;2.17;;
77262;SDS011;66373;52.334;4.806;2023-04-25T05:05:08;4.85;;;2.67;;
77262;SDS011;66373;52.334;4.806;2023-04-25T05:07:56;4.90;;;2.22;;
77262;SDS011;66373;52.334;4.806;2023-04-25T05:10:32;3.10;;;1.90;;
77262;SDS011;66373;52.334;4.806;2023-04-25T05:13:06;2.30;;;1.77;;
77262;SDS011;66373;52.334;4.806;2023-04-25T05:15:51;2.55;;;1.73;;
77262;SDS011;66373;52.334;4.806;2023-04-25T05:18:42;2.15;;;1.90;;
77262;SDS011;66373;52.334;4.806;2023-04-25T05:21:29;2.60;;;1.90;;
77262;SDS011;66373;52.334;4.806;2023-04-25T05:24:22;3.45;;;1.90;;
77262;SDS011;66373;52.334;4.806;2023-04-25T05:27:04;2.40;;;2.20;;
77262;SDS011;66373;52.334;4.806;2023-04-25T05:29:44;2.17;;;1.90;;
77262;SDS011;66373;52.334;4.806;2023-04-25T05:32:22;2.38;;;1.90;;
77262;SDS011;66373;52.334;4.806;2023-04-25T05:34:50;1.73;;;1.63;;
77262;SDS011;66373;52.334;4.806;2023-04-25T05:37:31;2.28;;;1.65;;
77262;SDS011;66373;52.334;4.806;2023-04-25T05:40:08;3.47;;;2.15;;
77262;SDS011;66373;52.334;4.806;2023-04-25T05:42:50;2.22;;;1.80;;
77262;SDS011;66373;52.334;4.806;2023-04-25T05:45:56;2.53;;;1.95;;
77262;SDS011;66373;52.334;4.806;2023-04-25T05:48:50;2.45;;;1.90;;
77262;SDS011;66373;52.334;4.806;2023-04-25T05:51:40;2.67;;;1.52;;
77262;SDS011;66373;52.334;4.806;2023-04-25T05:54:27;2.17;;;1.80;;
77262;SDS011;66373;52.334;4.806;2023-04-25T05:56:56;1.85;;;1.75;;
77262;SDS011;66373;52.334;4.806;2023-04-25T05:59:23;2.72;;;1.83;;
77262;SDS011;66373;52.334;4.806;2023-04-25T06:01:52;2.60;;;1.95;;
77262;SDS011;66373;52.334;4.806;2023-04-25T06:04:21;2.53;;;1.80;;
77262;SDS011;66373;52.334;4.806;2023-04-25T06:06:48;2.30;;;1.73;;
77262;SDS011;66373;52.334;4.806;2023-04-25T06:09:15;2.90;;;1.95;;
77262;SDS011;66373;52.334;4.806;2023-04-25T06:11:42;3.15;;;1.85;;
77262;SDS011;66373;52.334;4.806;2023-04-25T06:14:09;1.88;;;1.73;;
77262;SDS011;66373;52.334;4.806;2023-04-25T06:16:41;3.22;;;2.30;;
77262;SDS011;66373;52.334;4.806;2023-04-25T06:19:09;3.17;;;1.73;;
77262;SDS011;66373;52.334;4.806;2023-04-25T06:21:36;4.05;;;1.80;;
77262;SDS011;66373;52.334;4.806;2023-04-25T06:24:03;2.05;;;1.80;;
77262;SDS011;66373;52.334;4.806;2023-04-25T06:26:31;2.15;;;1.95;;
77262;SDS011;66373;52.334;4.806;2023-04-25T06:28:58;1.70;;;1.60;;
77262;SDS011;66373;52.334;4.806;2023-04-25T06:31:25;1.98;;;1.73;;
77262;SDS011;66373;52.334;4.806;2023-04-25T06:33:53;2.67;;;1.80;;
77262;SDS011;66373;52.334;4.806;2023-04-25T06:36:24;2.45;;;1.92;;
77262;SDS011;66373;52.334;4.806;2023-04-25T06:38:59;2.35;;;1.73;;
77262;SDS011;66373;52.334;4.806;2023-04-25T06:41:26;1.75;;;1.65;;
77262;SDS011;66373;52.334;4.806;2023-04-25T06:43:57;2.10;;;1.70;;
77262;SDS011;66373;52.334;4.806;2023-04-25T06:46:38;2.03;;;1.70;;
77262;SDS011;66373;52.334;4.806;2023-04-25T06:49:05;2.00;;;1.80;;
77262;SDS011;66373;52.334;4.806;2023-04-25T06:51:34;2.95;;;1.50;;
77262;SDS011;66373;52.334;4.806;2023-04-25T06:54:01;3.67;;;1.85;;
77262;SDS011;66373;52.334;4.806;2023-04-25T06:56:38;2.10;;;1.65;;
77262;SDS011;66373;52.334;4.806;2023-04-25T06:59:10;1.85;;;1.75;;
77262;SDS011;66373;52.334;4.806;2023-04-25T07:01:39;3.05;;;2.00;;
77262;SDS011;66373;52.334;4.806;2023-04-25T07:04:23;4.03;;;2.17;;
77262;SDS011;66373;52.334;4.806;2023-04-25T07:06:58;2.78;;;1.70;;
77262;SDS011;66373;52.334;4.806;2023-04-25T07:09:38;2.40;;;1.85;;
77262;SDS011;66373;52.334;4.806;2023-04-25T07:12:05;2.08;;;1.60;;
77262;SDS011;66373;52.334;4.806;2023-04-25T07:14:33;2.55;;;1.60;;
77262;SDS011;66373;52.334;4.806;2023-04-25T07:17:00;3.08;;;1.80;;
77262;SDS011;66373;52.334;4.806;2023-04-25T07:19:30;2.80;;;1.70;;
77262;SDS011;66373;52.334;4.806;2023-04-25T07:22:01;1.77;;;1.65;;
77262;SDS011;66373;52.334;4.806;2023-04-25T07:24:31;2.13;;;1.90;;
77262;SDS011;66373;52.334;4.806;2023-04-25T07:26:58;3.75;;;1.80;;
77262;SDS011;66373;52.334;4.806;2023-04-25T07:29:30;2.72;;;1.83;;
77262;SDS011;66373;52.334;4.806;2023-04-25T07:31:59;2.47;;;1.90;;
77262;SDS011;66373;52.334;4.806;2023-04-25T07:34:26;1.80;;;1.70;;
77262;SDS011;66373;52.334;4.806;2023-04-25T07:36:53;3.67;;;1.70;;
77262;SDS011;66373;52.334;4.806;2023-04-25T07:39:23;1.60;;;1.50;;
77262;SDS011;66373;52.334;4.806;2023-04-25T07:41:50;2.95;;;1.65;;
77262;SDS011;66373;52.334;4.806;2023-04-25T07:44:22;2.20;;;1.75;;
77262;SDS011;66373;52.334;4.806;2023-04-25T07:46:50;2.55;;;1.70;;
77262;SDS011;66373;52.334;4.806;2023-04-25T07:49:17;2.80;;;1.88;;
77262;SDS011;66373;52.334;4.806;2023-04-25T07:51:44;1.70;;;1.60;;
77262;SDS011;66373;52.334;4.806;2023-04-25T07:54:14;2.22;;;1.77;;
77262;SDS011;66373;52.334;4.806;2023-04-25T07:56:48;2.13;;;1.67;;
77262;SDS011;66373;52.334;4.806;2023-04-25T07:59:16;2.83;;;1.55;;
77262;SDS011;66373;52.334;4.806;2023-04-25T08:01:43;2.13;;;1.58;;
77262;SDS011;66373;52.334;4.806;2023-04-25T08:04:11;2.97;;;1.77;;
77262;SDS011;66373;52.334;4.806;2023-04-25T08:07:01;2.00;;;1.63;;
77262;SDS011;66373;52.334;4.806;2023-04-25T08:09:32;2.10;;;1.60;;
77262;SDS011;66373;52.334;4.806;2023-04-25T08:12:04;2.83;;;1.90;;
77262;SDS011;66373;52.334;4.806;2023-04-25T08:14:32;1.67;;;1.45;;
77262;SDS011;66373;52.334;4.806;2023-04-25T08:17:03;2.50;;;1.80;;
77262;SDS011;66373;52.334;4.806;2023-04-25T08:19:33;1.88;;;1.50;;
77262;SDS011;66373;52.334;4.806;2023-04-25T08:22:01;2.35;;;1.73;;
77262;SDS011;66373;52.334;4.806;2023-04-25T08:24:38;2.70;;;1.90;;
77262;SDS011;66373;52.334;4.806;2023-04-25T08:27:09;3.22;;;2.13;;
77262;SDS011;66373;52.334;4.806;2023-04-25T08:29:36;2.00;;;1.80;;
77262;SDS011;66373;52.334;4.806;2023-04-25T08:32:03;3.88;;;2.00;;
77262;SDS011;66373;52.334;4.806;2023-04-25T08:37:35;1.67;;;1.50;;
77262;SDS011;66373;52.334;4.806;2023-04-25T08:40:11;1.65;;;1.55;;
77262;SDS011;66373;52.334;4.806;2023-04-25T08:43:03;2.00;;;1.67;;
77262;SDS011;66373;52.334;4.806;2023-04-25T08:45:37;1.80;;;1.70;;
77262;SDS011;66373;52.334;4.806;2023-04-25T08:48:10;2.05;;;1.60;;
77262;SDS011;66373;52.334;4.806;2023-04-25T08:50:38;2.47;;;1.63;;
77262;SDS011;66373;52.334;4.806;2023-04-25T08:53:08;3.22;;;2.08;;
77262;SDS011;66373;52.334;4.806;2023-04-25T08:55:45;2.00;;;1.60;;
77262;SDS011;66373;52.334;4.806;2023-04-25T08:58:14;1.88;;;1.70;;
77262;SDS011;66373;52.334;4.806;2023-04-25T09:00:42;1.77;;;1.65;;
77262;SDS011;66373;52.334;4.806;2023-04-25T09:03:09;2.25;;;1.70;;
77262;SDS011;66373;52.334;4.806;2023-04-25T09:05:37;1.75;;;1.65;;
77262;SDS011;66373;52.334;4.806;2023-04-25T09:08:04;1.95;;;1.48;;
77262;SDS011;66373;52.334;4.806;2023-04-25T09:10:31;2.58;;;1.70;;
77262;SDS011;66373;52.334;4.806;2023-04-25T09:13:02;1.73;;;1.60;;
77262;SDS011;66373;52.334;4.806;2023-04-25T09:15:39;2.63;;;1.60;;
77262;SDS011;66373;52.334;4.806;2023-04-25T09:18:31;2.38;;;1.70;;
77262;SDS011;66373;52.334;4.806;2023-04-25T09:21:05;2.55;;;1.63;;
77262;SDS011;66373;52.334;4.806;2023-04-25T09:23:38;1.70;;;1.60;;
77262;SDS011;66373;52.334;4.806;2023-04-25T09:26:07;3.40;;;1.95;;
77262;SDS011;66373;52.334;4.806;2023-04-25T09:28:35;1.58;;;1.48;;
77262;SDS011;66373;52.334;4.806;2023-04-25T09:31:04;3.70;;;1.92;;
77262;SDS011;66373;52.334;4.806;2023-04-25T09:33:38;1.83;;;1.42;;
77262;SDS011;66373;52.334;4.806;2023-04-25T09:36:08;1.60;;;1.50;;
77262;SDS011;66373;52.334;4.806;2023-04-25T09:39:00;1.60;;;1.50;;
77262;SDS011;66373;52.334;4.806;2023-04-25T09:41:32;2.22;;;1.85;;
77262;SDS011;66373;52.334;4.806;2023-04-25T09:44:04;2.10;;;1.90;;
77262;SDS011;66373;52.334;4.806;2023-04-25T09:46:36;1.70;;;1.60;;
77262;SDS011;66373;52.334;4.806;2023-04-25T09:49:07;1.73;;;1.60;;
77262;SDS011;66373;52.334;4.806;2023-04-25T09:51:56;3.63;;;1.40;;
77262;SDS011;66373;52.334;4.806;2023-04-25T09:54:26;1.60;;;1.50;;
77262;SDS011;66373;52.334;4.806;2023-04-25T09:57:05;3.28;;;1.80;;
77262;SDS011;66373;52.334;4.806;2023-04-25T09:59:44;2.60;;;2.15;;
77262;SDS011;66373;52.334;4.806;2023-04-25T10:02:15;1.98;;;1.77;;
77262;SDS011;66373;52.334;4.806;2023-04-25T10:04:55;1.70;;;1.60;;
77262;SDS011;66373;52.334;4.806;2023-04-25T10:07:36;2.22;;;1.58;;
77262;SDS011;66373;52.334;4.806;2023-04-25T10:10:07;3.65;;;1.77;;
77262;SDS011;66373;52.334;4.806;2023-04-25T10:12:35;1.63;;;1.52;;
77262;SDS011;66373;52.334;4.806;2023-04-25T10:15:05;1.70;;;1.60;;
77262;SDS011;66373;52.334;4.806;2023-04-25T10:17:36;2.60;;;2.10;;
77262;SDS011;66373;52.334;4.806;2023-04-25T10:20:06;1.50;;;1.40;;
77262;SDS011;66373;52.334;4.806;2023-04-25T10:22:36;2.60;;;1.52;;
77262;SDS011;66373;52.334;4.806;2023-04-25T10:25:07;3.50;;;1.73;;
77262;SDS011;66373;52.334;4.806;2023-04-25T10:27:35;2.10;;;1.83;;
77262;SDS011;66373;52.334;4.806;2023-04-25T10:30:02;1.85;;;1.67;;
77262;SDS011;66373;52.334;4.806;2023-04-25T10:32:31;3.05;;;1.73;;
77262;SDS011;66373;52.334;4.806;2023-04-25T10:35:10;3.22;;;1.67;;
77262;SDS011;66373;52.334;4.806;2023-04-25T10:37:46;2.17;;;1.75;;
77262;SDS011;66373;52.334;4.806;2023-04-25T10:40:23;2.55;;;1.63;;
77262;SDS011;66373;52.334;4.806;2023-04-25T10:42:51;2.15;;;1.77;;
77262;SDS011;66373;52.334;4.806;2023-04-25T10:45:18;2.20;;;1.70;;
77262;SDS011;66373;52.334;4.806;2023-04-25T10:47:47;2.33;;;1.80;;
77262;SDS011;66373;52.334;4.806;2023-04-25T10:50:16;2.05;;;1.65;;
77262;SDS011;66373;52.334;4.806;2023-04-25T10:52:43;2.30;;;1.60;;
77262;SDS011;66373;52.334;4.806;2023-04-25T10:55:10;3.38;;;1.73;;
77262;SDS011;66373;52.334;4.806;2023-04-25T10:57:39;1.52;;;1.42;;
77262;SDS011;66373;52.334;4.806;2023-04-25T11:00:08;4.00;;;1.95;;
77262;SDS011;66373;52.334;4.806;2023-04-25T11:02:37;2.00;;;1.80;;
77262;SDS011;66373;52.334;4.806;2023-04-25T11:05:08;1.88;;;1.60;;
77262;SDS011;66373;52.334;4.806;2023-04-25T11:07:43;3.05;;;1.63;;
77262;SDS011;66373;52.334;4.806;2023-04-25T11:10:15;1.70;;;1.60;;
77262;SDS011;66373;52.334;4.806;2023-04-25T11:12:42;1.92;;;1.83;;
77262;SDS011;66373;52.334;4.806;2023-04-25T11:15:11;2.42;;;1.80;;
77262;SDS011;66373;52.334;4.806;2023-04-25T11:17:38;2.00;;;1.60;;
77262;SDS011;66373;52.334;4.806;2023-04-25T11:20:06;2.97;;;1.90;;
77262;SDS011;66373;52.334;4.806;2023-04-25T11:22:37;2.50;;;1.73;;
77262;SDS011;66373;52.334;4.806;2023-04-25T11:25:08;2.40;;;1.98;;
77262;SDS011;66373;52.334;4.806;2023-04-25T11:27:37;2.22;;;1.83;;
77262;SDS011;66373;52.334;4.806;2023-04-25T11:30:13;2.10;;;1.45;;
77262;SDS011;66373;52.334;4.806;2023-04-25T11:32:41;1.95;;;1.80;;
77262;SDS011;66373;52.334;4.806;2023-04-25T11:35:09;2.25;;;1.55;;
77262;SDS011;66373;52.334;4.806;2023-04-25T11:37:37;3.22;;;1.60;;
77262;SDS011;66373;52.334;4.806;2023-04-25T11:40:08;3.28;;;1.80;;
77262;SDS011;66373;52.334;4.806;2023-04-25T11:42:37;1.85;;;1.48;;
77262;SDS011;66373;52.334;4.806;2023-04-25T11:45:05;3.33;;;1.90;;
77262;SDS011;66373;52.334;4.806;2023-04-25T11:47:33;3.15;;;1.80;;
77262;SDS011;66373;52.334;4.806;2023-04-25T11:50:00;3.53;;;2.00;;
77262;SDS011;66373;52.334;4.806;2023-04-25T11:52:35;2.00;;;1.80;;
77262;SDS011;66373;52.334;4.806;2023-04-25T11:55:04;2.85;;;1.92;;
77262;SDS011;66373;52.334;4.806;2023-04-25T11:57:34;3.33;;;1.90;;
77262;SDS011;66373;52.334;4.806;2023-04-25T12:00:05;1.80;;;1.70;;
77262;SDS011;66373;52.334;4.806;2023-04-25T12:02:37;1.90;;;1.80;;
77262;SDS011;66373;52.334;4.806;2023-04-25T12:05:08;2.30;;;1.75;;
77262;SDS011;66373;52.334;4.806;2023-04-25T12:07:36;2.38;;;1.73;;
77262;SDS011;66373;52.334;4.806;2023-04-25T12:10:04;2.10;;;1.65;;
77262;SDS011;66373;52.334;4.806;2023-04-25T12:12:34;2.28;;;1.65;;
77262;SDS011;66373;52.334;4.806;2023-04-25T12:15:10;3.10;;;1.80;;
77262;SDS011;66373;52.334;4.806;2023-04-25T12:17:40;1.65;;;1.55;;
77262;SDS011;66373;52.334;4.806;2023-04-25T12:20:08;1.55;;;1.45;;
77262;SDS011;66373;52.334;4.806;2023-04-25T12:22:37;1.60;;;1.50;;
77262;SDS011;66373;52.334;4.806;2023-04-25T12:25:04;2.30;;;1.70;;
77262;SDS011;66373;52.334;4.806;2023-04-25T12:27:33;2.75;;;1.80;;
77262;SDS011;66373;52.334;4.806;2023-04-25T12:30:02;1.88;;;1.65;;
77262;SDS011;66373;52.334;4.806;2023-04-25T12:32:30;2.92;;;1.80;;
77262;SDS011;66373;52.334;4.806;2023-04-25T12:34:57;1.98;;;1.77;;
77262;SDS011;66373;52.334;4.806;2023-04-25T12:37:24;2.35;;;1.88;;
77262;SDS011;66373;52.334;4.806;2023-04-25T12:39:51;1.92;;;1.75;;
77262;SDS011;66373;52.334;4.806;2023-04-25T12:42:18;2.15;;;1.60;;
77262;SDS011;66373;52.334;4.806;2023-04-25T12:44:47;2.53;;;1.90;;
77262;SDS011;66373;52.334;4.806;2023-04-25T12:47:14;2.50;;;1.70;;
77262;SDS011;66373;52.334;4.806;2023-04-25T12:49:41;2.85;;;1.73;;
77262;SDS011;66373;52.334;4.806;2023-04-25T12:52:08;1.73;;;1.50;;
77262;SDS011;66373;52.334;4.806;2023-04-25T12:54:35;2.33;;;1.48;;
77262;SDS011;66373;52.334;4.806;2023-04-25T12:57:02;1.70;;;1.60;;
77262;SDS011;66373;52.334;4.806;2023-04-25T12:59:30;2.47;;;1.80;;
77262;SDS011;66373;52.334;4.806;2023-04-25T13:01:58;2.67;;;1.60;;
77262;SDS011;66373;52.334;4.806;2023-04-25T13:04:25;2.55;;;1.58;;
77262;SDS011;66373;52.334;4.806;2023-04-25T13:06:53;1.73;;;1.60;;
77262;SDS011;66373;52.334;4.806;2023-04-25T13:09:20;3.40;;;1.73;;
77262;SDS011;66373;52.334;4.806;2023-04-25T13:11:47;1.58;;;1.42;;
77262;SDS011;66373;52.334;4.806;2023-04-25T13:14:14;1.80;;;1.70;;
77262;SDS011;66373;52.334;4.806;2023-04-25T13:16:41;2.05;;;1.50;;
77262;SDS011;66373;52.334;4.806;2023-04-25T13:19:10;1.90;;;1.80;;
77262;SDS011;66373;52.334;4.806;2023-04-25T13:21:37;2.53;;;1.60;;
77262;SDS011;66373;52.334;4.806;2023-04-25T13:24:05;1.83;;;1.70;;
77262;SDS011;66373;52.334;4.806;2023-04-25T13:26:32;3.88;;;2.00;;
77262;SDS011;66373;52.334;4.806;2023-04-25T13:28:59;1.63;;;1.52;;
77262;SDS011;66373;52.334;4.806;2023-04-25T13:31:29;2.45;;;1.70;;
77262;SDS011;66373;52.334;4.806;2023-04-25T13:33:56;2.30;;;1.55;;
77262;SDS011;66373;52.334;4.806;2023-04-25T13:36:25;2.15;;;1.75;;
77262;SDS011;66373;52.334;4.806;2023-04-25T13:38:53;1.67;;;1.58;;
77262;SDS011;66373;52.334;4.806;2023-04-25T13:41:20;2.53;;;1.63;;
77262;SDS011;66373;52.334;4.806;2023-04-25T13:43:47;1.83;;;1.67;;
77262;SDS011;66373;52.334;4.806;2023-04-25T13:46:14;2.00;;;1.48;;
77262;SDS011;66373;52.334;4.806;2023-04-25T13:48:42;1.90;;;1.55;;
77262;SDS011;66373;52.334;4.806;2023-04-25T13:51:13;1.73;;;1.58;;
77262;SDS011;66373;52.334;4.806;2023-04-25T13:53:44;1.90;;;1.58;;
77262;SDS011;66373;52.334;4.806;2023-04-25T13:56:11;1.58;;;1.48;;
77262;SDS011;66373;52.334;4.806;2023-04-25T13:58:39;2.95;;;1.60;;
77262;SDS011;66373;52.334;4.806;2023-04-25T14:01:06;1.63;;;1.52;;
77262;SDS011;66373;52.334;4.806;2023-04-25T14:03:33;2.35;;;1.73;;
77262;SDS011;66373;52.334;4.806;2023-04-25T14:06:00;1.70;;;1.52;;
77262;SDS011;66373;52.334;4.806;2023-04-25T14:08:27;1.65;;;1.55;;
77262;SDS011;66373;52.334;4.806;2023-04-25T14:10:56;1.70;;;1.50;;
77262;SDS011;66373;52.334;4.806;2023-04-25T14:13:23;2.47;;;1.55;;
77262;SDS011;66373;52.334;4.806;2023-04-25T14:15:50;1.90;;;1.60;;
77262;SDS011;66373;52.334;4.806;2023-04-25T14:18:17;2.47;;;1.50;;
77262;SDS011;66373;52.334;4.806;2023-04-25T14:20:45;2.08;;;1.88;;
77262;SDS011;66373;52.334;4.806;2023-04-25T14:23:13;3.25;;;1.55;;
77262;SDS011;66373;52.334;4.806;2023-04-25T14:25:40;1.40;;;1.30;;
77262;SDS011;66373;52.334;4.806;2023-04-25T14:28:09;3.08;;;1.83;;
77262;SDS011;66373;52.334;4.806;2023-04-25T14:30:36;1.95;;;1.85;;
77262;SDS011;66373;52.334;4.806;2023-04-25T14:33:03;2.17;;;1.70;;
77262;SDS011;66373;52.334;4.806;2023-04-25T14:35:30;1.80;;;1.70;;
77262;SDS011;66373;52.334;4.806;2023-04-25T14:37:57;1.60;;;1.50;;
77262;SDS011;66373;52.334;4.806;2023-04-25T14:40:25;1.98;;;1.65;;
77262;SDS011;66373;52.334;4.806;2023-04-25T14:42:52;2.80;;;1.67;;
77262;SDS011;66373;52.334;4.806;2023-04-25T14:45:21;1.50;;;1.40;;
77262;SDS011;66373;52.334;4.806;2023-04-25T14:47:48;2.92;;;1.60;;
77262;SDS011;66373;52.334;4.806;2023-04-25T14:50:15;1.65;;;1.55;;
77262;SDS011;66373;52.334;4.806;2023-04-25T14:52:43;2.35;;;1.70;;
77262;SDS011;66373;52.334;4.806;2023-04-25T14:55:11;2.50;;;1.83;;
77262;SDS011;66373;52.334;4.806;2023-04-25T14:57:39;2.33;;;1.92;;
77262;SDS011;66373;52.334;4.806;2023-04-25T15:00:06;2.05;;;1.60;;
77262;SDS011;66373;52.334;4.806;2023-04-25T15:02:36;1.88;;;1.55;;
77262;SDS011;66373;52.334;4.806;2023-04-25T15:05:03;2.40;;;1.80;;
77262;SDS011;66373;52.334;4.806;2023-04-25T15:07:31;1.80;;;1.70;;
77262;SDS011;66373;52.334;4.806;2023-04-25T15:10:00;1.80;;;1.70;;
77262;SDS011;66373;52.334;4.806;2023-04-25T15:12:28;2.22;;;1.80;;
77262;SDS011;66373;52.334;4.806;2023-04-25T15:14:55;2.88;;;1.60;;